Inicio METAR Ruta Wind Satelite

Informe Meteorológico

Fecha: 2024/05/28 23:59:06 Local
2024.05.29 04:59 UTC


Operación:VFR
SKIP 290400Z NIL =

SKIP 282200Z 08008KT 9999 FEW018 15/09 Q1029
SKIP 282100Z 09007KT 9999 SCT018 16/10 Q1029
SKIP 282000Z 08009KT 9999 BKN018 16/11 Q1030
SKIP 281900Z 09008KT 9999 SCT016 BKN070 15/10 Q1031 RERA
SKIP 281800Z 11008KT 9999 -RA SCT012 BKN070 13/11 Q1032